Time;durP1;ratioP1;P1;durP2;ratioP2;P2;SDS_P1;SDS_P2;PMS_P1;PMS_P2;Temp;Humidity;BMP_temperature;BMP_pressure;BME280_temperature;BME280_humidity;BME280_pressure;Samples;Min_cycle;Max_cycle;Signal;HPM_P1;HPM_P2
2022/10/10 00:00:01;;;;;;;7.72;3.78;;;;;;;;;;6178618;23;20025;-83
2022/10/10 00:02:27;;;;;;;13.30;4.30;;;;;;;;;;6175802;23;20013;-83
2022/10/10 00:04:53;;;;;;;4.53;3.65;;;;;;;;;;6152266;23;20028;-83
2022/10/10 00:07:20;;;;;;;10.27;4.53;;;;;;;;;;6177327;23;20488;-84
2022/10/10 00:09:55;;;;;;;8.68;3.83;;;;;;;;;;6177000;23;20104;-84
2022/10/10 00:12:27;;;;;;;5.07;3.67;;;;;;;;;;6174547;23;20020;-84
2022/10/10 00:14:59;;;;;;;6.82;3.88;;;;;;;;;;6177496;23;20083;-84
2022/10/10 00:17:50;;;;;;;5.47;3.90;;;;;;;;;;6176042;23;20059;-84
2022/10/10 00:23:34;;;;;;;9.05;3.65;;;;;;;;;;6176177;23;20017;-83
2022/10/10 00:26:06;;;;;;;7.05;3.90;;;;;;;;;;6178111;23;20552;-85
2022/10/10 00:28:33;;;;;;;10.35;3.80;;;;;;;;;;6174468;23;20064;-83
2022/10/10 00:31:14;;;;;;;7.75;3.80;;;;;;;;;;6175594;23;20017;-82
2022/10/10 00:33:40;;;;;;;7.45;4.00;;;;;;;;;;6147660;23;20048;-81
2022/10/10 00:36:07;;;;;;;10.10;4.20;;;;;;;;;;6123459;23;20029;-82
2022/10/10 00:38:43;;;;;;;;;;;;;;;;;;;;;
2022/10/10 00:41:09;;;;;;;9.23;4.00;;;;;;;;;;6145171;23;20032;-82
2022/10/10 00:43:38;;;;;;;7.95;4.07;;;;;;;;;;6119311;23;20073;-82
2022/10/10 00:46:05;;;;;;;8.25;3.88;;;;;;;;;;6147120;23;20021;-83
2022/10/10 00:48:48;;;;;;;6.32;3.58;;;;;;;;;;6126403;23;20029;-81
2022/10/10 00:51:16;;;;;;;12.50;3.77;;;;;;;;;;6146669;23;20131;-82
2022/10/10 00:53:49;;;;;;;6.25;4.10;;;;;;;;;;6176213;23;20327;-82
2022/10/10 00:56:19;;;;;;;9.30;4.45;;;;;;;;;;6171678;23;20028;-82
2022/10/10 00:58:47;;;;;;;8.80;4.20;;;;;;;;;;6175722;23;20448;-81
2022/10/10 01:01:13;;;;;;;7.97;4.05;;;;;;;;;;6172901;23;20021;-82
2022/10/10 01:03:39;;;;;;;10.85;4.00;;;;;;;;;;6174727;23;20512;-82
2022/10/10 01:06:08;;;;;;;7.22;3.88;;;;;;;;;;6172738;23;20474;-82
2022/10/10 01:08:35;;;;;;;6.65;3.80;;;;;;;;;;6173160;23;20025;-83
2022/10/10 01:11:19;;;;;;;6.65;4.03;;;;;;;;;;6172981;23;20021;-82
2022/10/10 01:20:11;;;;;;;11.75;4.13;;;;;;;;;;6150332;23;20489;-83
2022/10/10 01:23:01;;;;;;;9.68;4.07;;;;;;;;;;6175944;23;20099;-82
2022/10/10 01:25:43;;;;;;;7.25;3.90;;;;;;;;;;6175657;23;20568;-80
2022/10/10 01:28:33;;;;;;;8.32;4.53;;;;;;;;;;6149702;23;20023;-82
2022/10/10 01:30:59;;;;;;;8.32;4.40;;;;;;;;;;6150818;23;20021;-82
2022/10/10 01:33:40;;;;;;;7.57;4.78;;;;;;;;;;6175340;23;20115;-82
2022/10/10 01:36:14;;;;;;;9.00;4.13;;;;;;;;;;6151227;23;20017;-82
2022/10/10 01:38:40;;;;;;;;;;;;;;;;;;6150715;23;20024;-82
2022/10/10 01:41:27;;;;;;;7.70;4.65;;;;;;;;;;6178147;23;19923;-84
2022/10/10 01:43:56;;;;;;;5.45;4.15;;;;;;;;;;6152737;23;20021;-84
2022/10/10 01:46:23;;;;;;;8.20;4.60;;;;;;;;;;6132996;23;20348;-82
2022/10/10 01:48:51;;;;;;;5.25;3.80;;;;;;;;;;6189234;23;20013;-83
2022/10/10 01:54:42;;;;;;;9.60;4.30;;;;;;;;;;6154589;23;20028;-82
2022/10/10 01:57:08;;;;;;;5.93;4.32;;;;;;;;;;6034835;23;20097;-82
2022/10/10 01:59:46;;;;;;;9.05;4.55;;;;;;;;;;6051510;23;20023;-82
2022/10/10 02:02:22;;;;;;;10.10;4.28;;;;;;;;;;6177438;23;20645;-83
2022/10/10 02:04:58;;;;;;;8.02;4.68;;;;;;;;;;6152459;23;20116;-83
2022/10/10 02:07:30;;;;;;;9.10;4.75;;;;;;;;;;6176611;23;20100;-82
2022/10/10 02:09:58;;;;;;;11.68;4.82;;;;;;;;;;6179282;23;20506;-81
2022/10/10 02:12:26;;;;;;;9.70;5.22;;;;;;;;;;6150349;23;20052;-82
2022/10/10 02:14:53;;;;;;;8.98;5.40;;;;;;;;;;6149880;23;20035;-82
2022/10/10 02:17:32;;;;;;;10.23;4.82;;;;;;;;;;6148350;23;20025;-82
2022/10/10 02:19:59;;;;;;;9.00;5.03;;;;;;;;;;6174347;23;21501;-83
2022/10/10 02:22:26;;;;;;;6.90;4.50;;;;;;;;;;6175292;23;20020;-82
2022/10/10 02:24:53;;;;;;;7.30;4.85;;;;;;;;;;6148618;23;20400;-81
2022/10/10 02:27:39;;;;;;;11.27;5.20;;;;;;;;;;6149364;23;20100;-82
2022/10/10 02:30:05;;;;;;;7.45;5.10;;;;;;;;;;6149142;23;20017;-82
2022/10/10 02:32:34;;;;;;;8.63;5.13;;;;;;;;;;6148512;23;20489;-82
2022/10/10 02:35:03;;;;;;;10.50;5.60;;;;;;;;;;6174220;23;20545;-81
2022/10/10 02:37:30;;;;;;;7.38;5.00;;;;;;;;;;6174614;23;20109;-82
2022/10/10 02:39:59;;;;;;;9.02;4.78;;;;;;;;;;6124433;23;20052;-82
2022/10/10 02:42:26;;;;;;;5.40;4.88;;;;;;;;;;6173927;23;20028;-81
2022/10/10 02:44:52;;;;;;;9.13;4.68;;;;;;;;;;6175920;23;20017;-82
2022/10/10 02:47:25;;;;;;;9.98;5.10;;;;;;;;;;6148366;23;20489;-82
2022/10/10 02:49:51;;;;;;;10.50;5.43;;;;;;;;;;6148838;23;20092;-82
2022/10/10 02:52:17;;;;;;;9.05;5.22;;;;;;;;;;6176884;23;20017;-82
2022/10/10 02:54:47;;;;;;;11.82;5.18;;;;;;;;;;6177002;23;20443;-83
2022/10/10 02:57:19;;;;;;;6.70;4.70;;;;;;;;;;6182294;23;20100;-83
2022/10/10 02:59:45;;;;;;;8.38;4.95;;;;;;;;;;6180615;23;20083;-81
2022/10/10 03:02:11;;;;;;;6.55;4.90;;;;;;;;;;6150315;23;20434;-81
2022/10/10 03:04:37;;;;;;;9.90;5.57;;;;;;;;;;6149984;23;20017;-81
2022/10/10 03:07:04;;;;;;;7.30;4.90;;;;;;;;;;6175862;23;20083;-82
2022/10/10 03:09:42;;;;;;;6.70;4.97;;;;;;;;;;6175301;23;20099;-83
2022/10/10 03:12:21;;;;;;;7.82;5.45;;;;;;;;;;6173730;23;20032;-82
2022/10/10 03:14:47;;;;;;;12.30;5.35;;;;;;;;;;6174324;23;20029;-81
2022/10/10 03:17:13;;;;;;;8.15;4.93;;;;;;;;;;6147630;23;20473;-81
2022/10/10 03:19:45;;;;;;;10.18;5.65;;;;;;;;;;6149604;23;20025;-81
2022/10/10 03:22:11;;;;;;;7.88;5.43;;;;;;;;;;6175166;23;20013;-82
2022/10/10 03:24:39;;;;;;;9.10;5.43;;;;;;;;;;6175338;23;20021;-82
2022/10/10 03:27:05;;;;;;;9.57;5.72;;;;;;;;;;6175047;23;20067;-82
2022/10/10 03:29:31;;;;;;;12.13;6.05;;;;;;;;;;6099362;23;20450;-82
2022/10/10 03:31:57;;;;;;;7.65;4.95;;;;;;;;;;6175081;23;20070;-81
2022/10/10 03:34:23;;;;;;;8.50;5.85;;;;;;;;;;6143917;23;20017;-82
2022/10/10 03:36:49;;;;;;;10.27;6.18;;;;;;;;;;6172580;23;20375;-82
2022/10/10 03:39:22;;;;;;;14.18;6.18;;;;;;;;;;6169219;23;20060;-82
2022/10/10 03:41:49;;;;;;;10.75;6.43;;;;;;;;;;6166935;23;20032;-82
2022/10/10 03:44:21;;;;;;;8.70;5.78;;;;;;;;;;6147090;23;20383;-82
2022/10/10 03:46:47;;;;;;;8.52;5.88;;;;;;;;;;6173732;23;20017;-81
2022/10/10 03:49:14;;;;;;;9.43;6.22;;;;;;;;;;6175219;23;20021;-82
2022/10/10 03:51:46;;;;;;;10.52;6.30;;;;;;;;;;6148246;23;20021;-81
2022/10/10 03:54:18;;;;;;;8.43;6.15;;;;;;;;;;6176923;23;20462;-83
2022/10/10 03:56:44;;;;;;;8.35;6.47;;;;;;;;;;6149832;23;20433;-82
2022/10/10 03:59:11;;;;;;;8.60;6.28;;;;;;;;;;6150632;23;20024;-83
2022/10/10 04:01:43;;;;;;;10.15;6.38;;;;;;;;;;6176810;23;20104;-82
2022/10/10 04:04:09;;;;;;;13.80;6.40;;;;;;;;;;6150088;23;20017;-82
2022/10/10 04:06:41;;;;;;;8.32;6.43;;;;;;;;;;6178308;23;20462;-81
2022/10/10 04:09:07;;;;;;;11.25;6.30;;;;;;;;;;6179993;23;20453;-81
2022/10/10 04:11:35;;;;;;;8.25;6.75;;;;;;;;;;6191213;23;20473;-81
2022/10/10 04:14:11;;;;;;;11.70;6.78;;;;;;;;;;6193724;23;20117;-80
2022/10/10 04:16:37;;;;;;;11.45;6.53;;;;;;;;;;6181943;23;20463;-81
2022/10/10 04:19:04;;;;;;;10.98;6.72;;;;;;;;;;6167053;23;20111;-81
2022/10/10 04:21:38;;;;;;;13.23;7.72;;;;;;;;;;6177512;23;20064;-81
2022/10/10 04:24:11;;;;;;;11.02;6.60;;;;;;;;;;6177293;23;20029;-81
2022/10/10 04:26:37;;;;;;;9.25;7.00;;;;;;;;;;6174487;23;20462;-82
2022/10/10 04:29:09;;;;;;;10.60;6.90;;;;;;;;;;6173925;23;20028;-83
2022/10/10 04:31:53;;;;;;;11.23;6.65;;;;;;;;;;6170536;23;20061;-83
2022/10/10 04:34:19;;;;;;;7.93;7.10;;;;;;;;;;6172714;23;20546;-83
2022/10/10 04:36:46;;;;;;;8.95;6.35;;;;;;;;;;6173835;23;20017;-84
2022/10/10 04:39:32;;;;;;;11.15;7.15;;;;;;;;;;6157666;23;20017;-83
2022/10/10 04:42:04;;;;;;;9.30;6.60;;;;;;;;;;6173968;23;20032;-83
2022/10/10 04:44:36;;;;;;;11.77;6.82;;;;;;;;;;6177387;23;20025;-83
2022/10/10 04:47:03;;;;;;;11.07;6.32;;;;;;;;;;6173257;23;20021;-81
2022/10/10 04:49:29;;;;;;;15.93;7.10;;;;;;;;;;6174855;23;20100;-82
2022/10/10 04:51:55;;;;;;;11.10;6.60;;;;;;;;;;6174020;23;20047;-83
2022/10/10 04:54:21;;;;;;;14.15;6.43;;;;;;;;;;6176248;23;20107;-82
2022/10/10 04:56:47;;;;;;;10.82;6.82;;;;;;;;;;6172399;23;20024;-82
2022/10/10 04:59:16;;;;;;;12.98;7.32;;;;;;;;;;6173912;23;20005;-81
2022/10/10 05:01:42;;;;;;;8.93;6.50;;;;;;;;;;6174877;23;20017;-81
2022/10/10 05:04:08;;;;;;;8.88;6.60;;;;;;;;;;6173896;23;20016;-82
2022/10/10 05:06:34;;;;;;;11.88;6.57;;;;;;;;;;6176337;23;20021;-82
2022/10/10 05:09:01;;;;;;;11.48;6.90;;;;;;;;;;6147639;23;20104;-81
2022/10/10 05:11:33;;;;;;;11.98;7.18;;;;;;;;;;6177741;23;20017;-82
2022/10/10 05:13:59;;;;;;;11.85;7.00;;;;;;;;;;6149634;23;20055;-83
2022/10/10 05:16:25;;;;;;;10.20;7.55;;;;;;;;;;6150083;23;20033;-82
2022/10/10 05:19:01;;;;;;;11.50;6.95;;;;;;;;;;6148644;23;20461;-82
2022/10/10 05:21:56;;;;;;;9.88;7.28;;;;;;;;;;6174936;23;20028;-81
2022/10/10 05:24:22;;;;;;;12.02;6.90;;;;;;;;;;6093834;23;20042;-82
2022/10/10 05:27:04;;;;;;;9.57;7.50;;;;;;;;;;6150544;23;20013;-83
2022/10/10 05:32:29;;;;;;;11.15;7.25;;;;;;;;;;6176383;23;20028;-82
2022/10/10 05:34:55;;;;;;;9.95;6.80;;;;;;;;;;6175395;23;20052;-83
2022/10/10 05:37:21;;;;;;;9.25;7.47;;;;;;;;;;6179073;23;20385;-82
2022/10/10 05:40:08;;;;;;;8.20;7.10;;;;;;;;;;6176554;23;20027;-83
2022/10/10 05:42:43;;;;;;;10.93;7.85;;;;;;;;;;6182299;23;20017;-82
2022/10/10 05:45:09;;;;;;;9.25;7.57;;;;;;;;;;6177942;23;20032;-81
2022/10/10 05:47:35;;;;;;;10.55;7.82;;;;;;;;;;6153798;23;20020;-82
2022/10/10 05:50:02;;;;;;;8.25;7.25;;;;;;;;;;6205949;23;20107;-83
2022/10/10 05:52:37;;;;;;;11.55;6.95;;;;;;;;;;6205936;23;20086;-83
2022/10/10 05:58:44;;;;;;;11.38;7.10;;;;;;;;;;6208159;23;20023;-82
2022/10/10 06:01:10;;;;;;;14.13;7.40;;;;;;;;;;6210148;23;20052;-82
2022/10/10 06:03:36;;;;;;;11.55;7.22;;;;;;;;;;6207764;23;20070;-83
2022/10/10 06:06:18;;;;;;;15.30;7.68;;;;;;;;;;6207972;23;20024;-83
2022/10/10 06:08:54;;;;;;;11.63;7.50;;;;;;;;;;6206448;23;20028;-81
2022/10/10 06:11:22;;;;;;;12.45;7.50;;;;;;;;;;6207586;23;20134;-83
2022/10/10 06:13:54;;;;;;;12.30;8.45;;;;;;;;;;6208109;23;20020;-83
2022/10/10 06:16:38;;;;;;;10.10;7.70;;;;;;;;;;6180488;23;20508;-82
2022/10/10 06:19:04;;;;;;;12.02;8.18;;;;;;;;;;6208927;23;20013;-82
2022/10/10 06:31:05;;;;;;;11.52;8.52;;;;;;;;;;6169546;23;20354;-86
2022/10/10 06:33:32;;;;;;;15.07;9.23;;;;;;;;;;6154280;23;20517;-86
2022/10/10 06:35:58;;;;;;;13.95;8.20;;;;;;;;;;6170712;23;20031;-86
2022/10/10 06:41:34;;;;;;;10.95;9.00;;;;;;;;;;6118098;23;20025;-86
2022/10/10 06:44:25;;;;;;;13.05;8.50;;;;;;;;;;6119560;23;20037;-86
2022/10/10 06:56:43;;;;;;;11.18;8.90;;;;;;;;;;6211267;22;20524;-82
2022/10/10 06:59:09;;;;;;;14.38;8.88;;;;;;;;;;6153499;23;20025;-82
2022/10/10 07:01:38;;;;;;;14.85;9.05;;;;;;;;;;6204621;23;20013;-81
2022/10/10 07:04:04;;;;;;;10.80;8.65;;;;;;;;;;6203096;23;20017;-81
2022/10/10 07:06:31;;;;;;;16.23;8.85;;;;;;;;;;6202477;23;20064;-79
2022/10/10 07:08:57;;;;;;;12.27;9.32;;;;;;;;;;6177625;23;20028;-82
2022/10/10 07:11:24;;;;;;;14.93;8.90;;;;;;;;;;6203178;23;20027;-82
2022/10/10 07:13:52;;;;;;;13.38;8.68;;;;;;;;;;6205457;23;20021;-80
2022/10/10 07:16:18;;;;;;;13.93;9.00;;;;;;;;;;6203498;23;20055;-80
2022/10/10 07:18:44;;;;;;;12.98;8.98;;;;;;;;;;6205360;23;20020;-81
2022/10/10 07:21:10;;;;;;;17.48;8.93;;;;;;;;;;6202801;23;20127;-79
2022/10/10 07:23:38;;;;;;;10.55;8.68;;;;;;;;;;6203524;23;20696;-80
2022/10/10 07:26:06;;;;;;;12.63;9.00;;;;;;;;;;6203139;23;20513;-81
2022/10/10 07:28:32;;;;;;;14.65;8.90;;;;;;;;;;6204932;23;20013;-79
2022/10/10 07:31:04;;;;;;;11.02;7.80;;;;;;;;;;6206596;23;20057;-79
2022/10/10 07:33:31;;;;;;;11.75;8.38;;;;;;;;;;6203491;23;20480;-80
2022/10/10 07:35:58;;;;;;;16.10;8.73;;;;;;;;;;6207898;23;20024;-81
2022/10/10 07:38:25;;;;;;;11.48;7.75;;;;;;;;;;6205786;23;20028;-81
2022/10/10 07:40:51;;;;;;;14.80;9.35;;;;;;;;;;6204386;23;20031;-80
2022/10/10 07:43:17;;;;;;;14.95;9.00;;;;;;;;;;6206279;23;20021;-81
2022/10/10 07:45:43;;;;;;;13.93;8.27;;;;;;;;;;6205776;23;20071;-80
2022/10/10 07:48:10;;;;;;;13.43;8.38;;;;;;;;;;6204925;23;20761;-81
2022/10/10 07:50:39;;;;;;;11.25;8.90;;;;;;;;;;6203553;23;20070;-80
2022/10/10 07:53:06;;;;;;;11.27;8.85;;;;;;;;;;6207689;23;20063;-79
2022/10/10 07:55:33;;;;;;;10.13;8.90;;;;;;;;;;6198603;23;20024;-80
2022/10/10 07:58:02;;;;;;;11.13;8.25;;;;;;;;;;6205004;23;20021;-80
2022/10/10 08:00:28;;;;;;;11.60;8.95;;;;;;;;;;6203116;23;20024;-81
2022/10/10 08:02:55;;;;;;;12.00;8.73;;;;;;;;;;6203528;23;20104;-83
2022/10/10 08:05:21;;;;;;;14.18;9.10;;;;;;;;;;6201690;23;20345;-79
2022/10/10 08:07:47;;;;;;;11.88;8.68;;;;;;;;;;6200760;23;20783;-79
2022/10/10 08:10:14;;;;;;;12.88;8.20;;;;;;;;;;6202477;23;20437;-79
2022/10/10 08:12:40;;;;;;;13.57;8.05;;;;;;;;;;6198978;23;20059;-80
2022/10/10 08:15:06;;;;;;;11.05;8.38;;;;;;;;;;6202236;23;20031;-80
2022/10/10 08:17:32;;;;;;;17.50;9.35;;;;;;;;;;6199435;23;20056;-79
2022/10/10 08:19:58;;;;;;;16.83;9.30;;;;;;;;;;6203035;23;20017;-79
2022/10/10 08:22:24;;;;;;;13.55;10.00;;;;;;;;;;6199279;23;20027;-81
2022/10/10 08:24:54;;;;;;;15.05;9.43;;;;;;;;;;6202526;23;20444;-81
2022/10/10 08:27:20;;;;;;;15.57;9.00;;;;;;;;;;6198654;23;20479;-78
2022/10/10 08:29:46;;;;;;;16.60;8.82;;;;;;;;;;6150672;23;20020;-78
2022/10/10 08:32:12;;;;;;;13.27;9.55;;;;;;;;;;6201230;23;20020;-81
2022/10/10 08:34:38;;;;;;;12.10;8.23;;;;;;;;;;6199693;23;20055;-80
2022/10/10 08:37:04;;;;;;;13.90;9.38;;;;;;;;;;6202103;23;20013;-80
2022/10/10 08:39:33;;;;;;;18.00;9.65;;;;;;;;;;6149887;23;20020;-80
2022/10/10 08:42:03;;;;;;;12.65;8.90;;;;;;;;;;6203097;23;20023;-79
2022/10/10 08:44:35;;;;;;;12.13;8.65;;;;;;;;;;6199131;23;20527;-79
2022/10/10 08:47:16;;;;;;;15.73;8.05;;;;;;;;;;6203946;23;20023;-79
2022/10/10 08:49:48;;;;;;;13.65;8.75;;;;;;;;;;6175266;23;20025;-80
2022/10/10 08:52:14;;;;;;;12.00;9.02;;;;;;;;;;6205794;23;20017;-76
2022/10/10 08:54:41;;;;;;;8.95;7.68;;;;;;;;;;6205395;23;20016;-75
2022/10/10 08:57:13;;;;;;;9.77;8.25;;;;;;;;;;6210353;23;20047;-78
2022/10/10 08:59:40;;;;;;;11.85;8.35;;;;;;;;;;6211927;23;20021;-79
2022/10/10 09:02:32;;;;;;;13.52;9.25;;;;;;;;;;6204827;23;20025;-76
2022/10/10 09:04:58;;;;;;;13.80;8.93;;;;;;;;;;6194195;23;20755;-81
2022/10/10 09:07:29;;;;;;;20.33;9.88;;;;;;;;;;6200184;23;20016;-80
2022/10/10 09:10:20;;;;;;;18.63;8.77;;;;;;;;;;6204370;23;20418;-79
2022/10/10 09:12:46;;;;;;;11.15;9.20;;;;;;;;;;6205766;23;20028;-81
2022/10/10 09:15:19;;;;;;;11.70;8.10;;;;;;;;;;6205276;23;20029;-80
2022/10/10 09:18:06;;;;;;;14.73;8.68;;;;;;;;;;6204748;23;20048;-80
2022/10/10 09:20:38;;;;;;;12.35;7.78;;;;;;;;;;6203733;23;20537;-82
2022/10/10 09:23:27;;;;;;;13.30;8.93;;;;;;;;;;6204549;23;20020;-80
2022/10/10 09:25:53;;;;;;;15.25;9.70;;;;;;;;;;6202015;23;20027;-77
2022/10/10 09:28:28;;;;;;;11.80;7.60;;;;;;;;;;6202856;23;20048;-81
2022/10/10 09:30:56;;;;;;;17.35;9.35;;;;;;;;;;6203673;23;20350;-78
2022/10/10 09:33:27;;;;;;;17.77;9.65;;;;;;;;;;6202031;23;20016;-81
2022/10/10 09:35:56;;;;;;;11.15;8.77;;;;;;;;;;6203896;23;20349;-80
2022/10/10 09:38:28;;;;;;;16.92;9.55;;;;;;;;;;6202515;23;20910;-81
2022/10/10 09:41:17;;;;;;;14.73;9.18;;;;;;;;;;6205253;23;20059;-81
2022/10/10 09:43:44;;;;;;;12.60;8.35;;;;;;;;;;6191732;23;20024;-79
2022/10/10 09:46:10;;;;;;;13.05;8.65;;;;;;;;;;6203528;23;20035;-81
2022/10/10 09:48:37;;;;;;;15.18;8.57;;;;;;;;;;6205265;23;20047;-78
2022/10/10 09:51:05;;;;;;;11.85;8.63;;;;;;;;;;6203474;23;20020;-80
2022/10/10 09:53:31;;;;;;;11.82;8.77;;;;;;;;;;6204013;23;20021;-78
2022/10/10 09:55:58;;;;;;;16.67;9.30;;;;;;;;;;6200685;23;20052;-81
2022/10/10 09:58:36;;;;;;;15.38;9.60;;;;;;;;;;6203421;23;20021;-79
2022/10/10 10:01:15;;;;;;;15.65;8.98;;;;;;;;;;6201156;23;20404;-80
2022/10/10 10:03:42;;;;;;;11.90;8.77;;;;;;;;;;6203622;23;20021;-81
2022/10/10 10:06:11;;;;;;;16.67;10.10;;;;;;;;;;6200997;23;20491;-80
2022/10/10 10:08:37;;;;;;;13.45;8.80;;;;;;;;;;6201650;23;20056;-81
2022/10/10 10:11:04;;;;;;;18.00;9.15;;;;;;;;;;6203939;23;20070;-79
2022/10/10 10:13:31;;;;;;;16.48;9.75;;;;;;;;;;6202402;23;20017;-80
2022/10/10 10:16:02;;;;;;;16.27;9.02;;;;;;;;;;6204715;23;20094;-79
2022/10/10 10:18:38;;;;;;;13.32;9.40;;;;;;;;;;6204883;23;20063;-79
2022/10/10 10:21:07;;;;;;;17.40;9.05;;;;;;;;;;6208654;23;20161;-82
2022/10/10 10:23:52;;;;;;;11.93;8.18;;;;;;;;;;6216962;23;20020;-90
2022/10/10 10:26:26;;;;;;;12.73;8.88;;;;;;;;;;6215978;23;20020;-91
2022/10/10 10:29:36;;;;;;;12.35;8.30;;;;;;;;;;6191916;23;20043;-90
2022/10/10 10:32:15;;;;;;;16.98;8.40;;;;;;;;;;6215399;23;20464;-91
2022/10/10 10:34:41;;;;;;;14.95;7.97;;;;;;;;;;6188045;23;20064;-90
2022/10/10 10:37:29;;;;;;;12.55;7.47;;;;;;;;;;6215178;23;20422;-88
2022/10/10 10:43:25;;;;;;;12.68;7.55;;;;;;;;;;6225140;23;20029;-88
2022/10/10 10:46:07;;;;;;;12.20;6.72;;;;;;;;;;6226220;23;20017;-82
2022/10/10 10:48:52;;;;;;;10.32;7.10;;;;;;;;;;6220952;23;20023;-87
2022/10/10 10:51:37;;;;;;;14.27;7.90;;;;;;;;;;6217439;23;20020;-91
2022/10/10 10:54:27;;;;;;;15.32;8.48;;;;;;;;;;6188929;23;20021;-89
2022/10/10 10:57:38;;;;;;;12.10;7.80;;;;;;;;;;6187838;23;20088;-90
2022/10/10 11:03:28;;;;;;;16.17;7.82;;;;;;;;;;6100159;23;20062;-89
2022/10/10 11:16:05;;;;;;;11.63;7.18;;;;;;;;;;6194392;23;20674;-88
2022/10/10 11:24:59;;;;;;;14.18;6.20;;;;;;;;;;6228429;23;20042;-87
2022/10/10 11:27:44;;;;;;;11.18;7.05;;;;;;;;;;6183517;23;20033;-91
2022/10/10 11:30:50;;;;;;;14.32;7.40;;;16.00;99.90;;;;;;6141975;23;20489;-90
2022/10/10 11:47:14;;;;;;;10.50;6.30;;;15.50;99.90;;;;;;6217750;23;20028;-90
2022/10/10 11:50:07;;;;;;;17.73;6.82;;;;;;;;;;6140610;23;20017;-91
2022/10/10 11:59:41;;;;;;;14.68;7.78;;;;;;;;;;6189478;23;20072;-90
2022/10/10 12:02:42;;;;;;;16.65;7.35;;;;;;;;;;6189111;23;20110;-91
2022/10/10 12:05:37;;;;;;;19.23;8.10;;;;;;;;;;6217264;23;20063;-91
2022/10/10 12:08:33;;;;;;;13.05;7.72;;;;;;;;;;6217483;23;20094;-92
2022/10/10 12:15:08;;;;;;;16.60;7.28;;;;;;;;;;6218854;23;20078;-91
2022/10/10 12:17:50;;;;;;;;;;;;;;;;;;6216440;23;20024;-90
2022/10/10 12:24:09;;;;;;;10.93;6.72;;;;;;;;;;6215143;23;20008;-85
2022/10/10 12:26:54;;;;;;;13.00;7.25;;;;;;;;;;6217892;23;20020;-90
2022/10/10 12:29:48;;;;;;;14.57;7.90;;;;;;;;;;6162939;23;20036;-91
2022/10/10 12:32:20;;;;;;;16.10;8.45;;;;;;;;;;6216199;23;20017;-89
2022/10/10 12:34:52;;;;;;;12.68;8.25;;;;;;;;;;6163065;23;20434;-90
2022/10/10 12:37:25;;;;;;;13.32;8.15;;;;;;;;;;6214853;23;20024;-89
2022/10/10 12:46:17;;;;;;;19.60;9.25;;;;;;;;;;6186952;23;20032;-88
2022/10/10 12:48:44;;;;;;;17.33;10.73;;;;;;;;;;6157999;23;20414;-92
2022/10/10 13:01:07;;;;;;;18.17;11.38;;;;;;;;;;6131598;23;20072;-93
2022/10/10 13:03:35;;;;;;;22.52;12.63;;;;;;;;;;6104786;23;20021;-90
2022/10/10 13:06:07;;;;;;;18.55;12.32;;;;;;;;;;6160394;23;20036;-94
2022/10/10 13:08:36;;;;;;;22.13;13.30;;;;;;;;;;6126781;23;20025;-88
2022/10/10 13:11:37;;;;;;;18.33;12.68;;;;;;;;;;6134254;23;20061;-89
2022/10/10 13:14:08;;;;;;;21.95;14.15;;;;;;;;;;6112028;23;20029;-90
2022/10/10 13:16:43;;;;;;;22.10;13.52;;;;;;;;;;6158242;23;20104;-92
2022/10/10 13:22:51;;;;;;;25.88;14.82;;;;;;;;;;6131707;23;20029;-87
2022/10/10 13:25:22;;;;;;;23.63;17.25;;;;;;;;;;6104055;23;20063;-93
2022/10/10 13:28:01;;;;;;;28.13;16.73;;;;;;;;;;6125513;23;20018;-86
2022/10/10 13:30:27;;;;;;;25.27;15.02;;;;;;;;;;6126232;23;20053;-91
2022/10/10 13:33:00;;;;;;;27.13;15.63;;;;;;;;;;6153050;23;20010;-89
2022/10/10 13:38:59;;;;;;;26.10;13.50;;;;;;;;;;6063719;23;20019;-92
2022/10/10 13:41:35;;;;;;;27.23;16.83;;;;;;;;;;6068716;23;20743;-92
2022/10/10 13:44:11;;;;;;;26.10;16.90;;;;;;;;;;6072597;23;20034;-93
2022/10/10 13:46:37;;;;;;;29.77;17.08;;;;;;;;;;6075617;23;20023;-94
2022/10/10 13:52:25;;;;;;;30.08;17.38;;;;;;;;;;6074552;23;20041;-91
2022/10/10 14:11:54;;;;;;;15.30;2.38;;;;;;;;;;6208918;23;20029;-84
2022/10/10 14:18:20;;;;;;;14.20;2.40;;;12.40;99.90;;;;;;6227711;23;20039;-92
2022/10/10 14:40:32;;;;;;;15.70;2.00;;;;;;;;;;6183743;23;20064;-89
2022/10/10 14:59:31;;;;;;;20.70;3.55;;;;;;;;;;6191728;23;20055;-96
2022/10/10 15:05:51;;;;;;;23.58;4.03;;;;;;;;;;6234720;22;20124;-87
2022/10/10 15:43:14;;;;;;;25.70;3.15;;;;;;;;;;6165585;23;20024;-94
2022/10/10 15:52:30;;;;;;;22.77;3.03;;;;;;;;;;6202578;23;20043;-95
2022/10/10 15:55:32;;;;;;;17.08;2.42;;;12.80;99.90;;;;;;6109950;23;20059;-92
2022/10/10 16:04:48;;;;;;;;;;;12.50;99.90;;;;;;6264755;23;20026;-92
2022/10/10 16:10:44;;;;;;;20.50;3.38;;;;;;;;;;6209116;23;20114;-87
2022/10/10 16:13:10;;;;;;;22.55;3.50;;;;;;;;;;6218731;23;20024;-91
2022/10/10 16:23:18;;;;;;;26.45;5.03;;;;;;;;;;6194109;23;20117;-88
2022/10/10 16:37:24;;;;;;;17.33;3.13;;;;;;;;;;6201989;23;20025;-87
2022/10/10 16:40:16;;;;;;;20.50;2.53;;;;;;;;;;6156924;23;20039;-91
2022/10/10 16:42:49;;;;;;;19.13;3.03;;;;;;;;;;6213667;23;20067;-92
2022/10/10 16:45:28;;;;;;;22.95;3.55;;;;;;;;;;6159480;23;20607;-91
2022/10/10 16:51:23;;;;;;;27.50;4.45;;;;;;;;;;6182611;23;20028;-94
2022/10/10 17:11:10;;;;;;;14.82;3.13;;;;;;;;;;6128563;23;20026;-93
2022/10/10 17:13:41;;;;;;;18.08;3.60;;;;;;;;;;6131496;23;20018;-91
2022/10/10 17:26:15;;;;;;;17.38;2.85;;;;;;;;;;6178005;23;20148;-89
2022/10/10 17:29:00;;;;;;;14.60;2.80;;;;;;;;;;6153189;23;20130;-91
2022/10/10 17:31:26;;;;;;;21.35;3.67;;;;;;;;;;6105969;23;20031;-88
2022/10/10 17:33:52;;;;;;;17.33;3.10;;;;;;;;;;6153714;23;20100;-90
2022/10/10 17:42:15;;;;;;;21.40;3.55;;;;;;;;;;6212640;22;20029;-91
2022/10/10 17:44:58;;;;;;;22.67;3.78;;;;;;;;;;6181319;23;20031;-87
2022/10/10 17:47:27;;;;;;;22.13;4.38;;;;;;;;;;6152410;23;20099;-91
2022/10/10 17:53:04;;;;;;;17.42;3.20;;;;;;;;;;6183509;23;20056;-91
2022/10/10 18:16:04;;;;;;;15.65;3.10;;;;;;;;;;6191098;23;20024;-88
2022/10/10 18:18:50;;;;;;;15.80;3.20;;;;;;;;;;6219165;23;20024;-92
2022/10/10 18:21:36;;;;;;;16.88;3.30;;;;;;;;;;6194439;22;20028;-92
2022/10/10 18:24:35;;;;;;;18.73;3.10;;;10.40;99.90;;;;;;6198753;23;20035;-92
2022/10/10 18:27:29;;;;;;;14.20;4.32;;;;;;;;;;6163011;23;20029;-87
2022/10/10 18:29:55;;;;;;;21.42;4.35;;;;;;;;;;6134217;23;20032;-89
2022/10/10 18:34:49;;;;;;;15.18;4.20;;;;;;;;;;6206285;22;20043;-90
2022/10/10 18:37:28;;;;;;;12.60;3.38;;;;;;;;;;6197057;23;20021;-92
2022/10/10 18:40:12;;;;;;;19.75;4.25;;;;;;;;;;6202432;23;20024;-94
2022/10/10 19:12:10;;;;;;;15.63;2.92;;;;;;;;;;6161318;23;20021;-90
2022/10/10 19:21:25;;;;;;;17.45;3.22;;;;;;;;;;6226067;23;20024;-90
2022/10/10 19:24:12;;;;;;;19.90;3.38;;;;;;;;;;6170207;23;20020;-90
2022/10/10 19:26:48;;;;;;;;;;;;;;;;;;;;;
2022/10/10 19:29:49;;;;;;;18.83;3.80;;;;;;;;;;6218282;23;20022;-90
2022/10/10 19:32:15;;;;;;;29.33;4.93;;;;;;;;;;6167070;23;20025;-92
2022/10/10 19:38:49;;;;;;;15.88;2.85;;;9.10;99.90;;;;;;6218938;23;20024;-90
2022/10/10 19:41:40;;;;;;;20.35;2.97;;;9.00;99.90;;;;;;6215342;23;20016;-92
2022/10/10 19:46:53;;;;;;;16.52;3.50;;;;;;;;;;6221786;23;20080;-92
2022/10/10 19:49:49;;;;;;;15.70;3.45;;;;;;;;;;6193643;23;20171;-92
2022/10/10 19:52:22;;;;;;;16.10;3.38;;;;;;;;;;6196200;23;20021;-91
2022/10/10 19:54:49;;;;;;;26.63;5.45;;;;;;;;;;6215391;23;20029;-90
2022/10/10 19:57:32;;;;;;;18.52;3.53;;;;;;;;;;6169924;23;20075;-92
2022/10/10 20:00:23;;;;;;;21.23;3.00;;;;;;;;;;6216774;23;20042;-90
2022/10/10 20:02:49;;;;;;;16.13;4.03;;;;;;;;;;6218369;23;20025;-87
2022/10/10 20:07:54;;;;;;;25.60;3.55;;;;;;;;;;6216118;23;20044;-89
2022/10/10 20:10:24;;;;;;;16.48;3.28;;;;;;;;;;6190858;23;20471;-88
2022/10/10 20:12:53;;;;;;;15.40;3.13;;;;;;;;;;6169385;23;20042;-87
2022/10/10 20:15:35;;;;;;;22.48;3.42;;;;;;;;;;6190693;23;20017;-89
2022/10/10 20:18:46;;;;;;;24.42;4.65;;;;;;;;;;6130583;23;20026;-89
2022/10/10 20:21:15;;;;;;;18.42;3.63;;;;;;;;;;6147683;23;20028;-89
2022/10/10 20:27:04;;;;;;;19.73;3.70;;;;;;;;;;6217258;23;20035;-90
2022/10/10 20:29:49;;;;;;;15.43;3.53;;;;;;;;;;6214589;23;20020;-93
2022/10/10 20:32:17;;;;;;;17.17;3.65;;;;;;;;;;6149894;23;20090;-94
2022/10/10 20:37:24;;;;;;;18.55;3.38;;;;;;;;;;6223979;22;20024;-93
2022/10/10 20:39:50;;;;;;;14.23;2.90;;;;;;;;;;6191865;23;20111;-93
2022/10/10 20:42:47;;;;;;;14.65;3.95;;;;;;;;;;6218895;23;20055;-94
2022/10/10 20:45:19;;;;;;;19.73;2.78;;;;;;;;;;6218591;23;20020;-93
2022/10/10 20:48:04;;;;;;;21.00;3.55;;;;;;;;;;6220877;23;20078;-93
2022/10/10 20:50:47;;;;;;;25.67;4.18;;;;;;;;;;6220418;23;20048;-93
2022/10/10 20:53:16;;;;;;;20.17;3.30;;;;;;;;;;6220358;23;20021;-94
2022/10/10 20:56:01;;;;;;;17.02;3.50;;;;;;;;;;6222074;23;20112;-93
2022/10/10 20:58:27;;;;;;;19.38;3.97;;;;;;;;;;6198117;23;20028;-93
2022/10/10 21:01:24;;;;;;;24.00;3.88;;;;;;;;;;6227636;23;20044;-96
2022/10/10 21:03:50;;;;;;;43.50;3.95;;;;;;;;;;6198876;23;20039;-93
2022/10/10 21:06:27;;;;;;;13.18;3.53;;;;;;;;;;6223098;23;20019;-93
2022/10/10 21:11:24;;;;;;;19.85;3.28;;;;;;;;;;6190874;23;20028;-92